createdAt,value
2023-05-20T00:00:57.742Z,100283.75
2023-05-20T00:03:30.794Z,100283.69
2023-05-20T00:06:03.949Z,100298.44
2023-05-20T00:08:36.852Z,100289.05
2023-05-20T00:11:10.564Z,100292.75
2023-05-20T00:13:43.855Z,100290.79
2023-05-20T00:16:16.887Z,100292.62
2023-05-20T00:18:49.761Z,100296.80
2023-05-20T00:21:22.537Z,100296.68
2023-05-20T00:23:55.570Z,100300.04
2023-05-20T00:26:30.192Z,100299.00
2023-05-20T00:29:03.962Z,100290.09
2023-05-20T00:31:36.930Z,100289.66
2023-05-20T00:34:11.244Z,100286.70
2023-05-20T00:36:44.160Z,100294.59
2023-05-20T00:39:17.098Z,100289.73
2023-05-20T00:41:50.405Z,100296.80
2023-05-20T00:44:24.946Z,100290.59
2023-05-20T00:46:58.509Z,100294.92
2023-05-20T00:49:31.633Z,100301.44
2023-05-20T00:52:04.531Z,100292.89
2023-05-20T00:54:38.416Z,100292.83
2023-05-20T00:57:12.322Z,100291.02
2023-05-20T00:59:45.442Z,100291.45
2023-05-20T01:02:18.656Z,100293.20
2023-05-20T01:04:51.693Z,100286.13
2023-05-20T01:07:26.326Z,100286.20
2023-05-20T01:09:59.827Z,100293.20
2023-05-20T01:12:46.144Z,100285.25
2023-05-20T01:15:19.581Z,100286.89
2023-05-20T01:17:58.303Z,100291.20
2023-05-20T01:20:33.501Z,100291.89
2023-05-20T01:23:06.454Z,100289.13
2023-05-20T01:25:39.219Z,100298.27
2023-05-20T01:28:13.839Z,100295.11
2023-05-20T01:30:51.383Z,100288.71
2023-05-20T01:33:24.997Z,100282.90
2023-05-20T01:35:59.569Z,100287.20
2023-05-20T01:38:33.568Z,100281.52
2023-05-20T01:41:07.948Z,100283.19
2023-05-20T01:43:41.798Z,100275.64
2023-05-20T01:46:16.575Z,100277.31
2023-05-20T01:48:49.483Z,100290.88
2023-05-20T01:51:22.793Z,100290.74
2023-05-20T01:53:55.808Z,100287.09
2023-05-20T01:56:29.781Z,100290.97
2023-05-20T01:59:05.135Z,100292.67
2023-05-20T02:01:38.044Z,100294.05
2023-05-20T02:04:11.100Z,100293.99
2023-05-20T02:06:44.220Z,100300.16
2023-05-20T02:09:17.134Z,100305.48
2023-05-20T02:11:50.092Z,100303.74
2023-05-20T02:14:23.026Z,100298.92
2023-05-20T02:16:56.344Z,100303.25
2023-05-20T02:19:29.241Z,100301.58
2023-05-20T02:22:03.280Z,100301.71
2023-05-20T02:24:36.580Z,100316.78
2023-05-20T02:27:09.444Z,100315.25
2023-05-20T02:29:44.783Z,100319.39
2023-05-20T02:32:17.557Z,100318.27
2023-05-20T02:34:50.371Z,100316.86
2023-05-20T02:37:23.615Z,100321.98
2023-05-20T02:39:56.573Z,100322.11
2023-05-20T02:42:29.506Z,100323.06
2023-05-20T02:45:02.360Z,100317.50
2023-05-20T02:47:35.719Z,100319.44
2023-05-20T02:50:10.506Z,100323.97
2023-05-20T02:52:43.629Z,100327.65
2023-05-20T02:55:17.471Z,100322.97
2023-05-20T02:57:50.351Z,100320.17
2023-05-20T03:00:23.954Z,100332.81
2023-05-20T03:02:57.011Z,100319.54
2023-05-20T03:05:30.170Z,100327.68
2023-05-20T03:08:03.177Z,100331.45
2023-05-20T03:10:36.822Z,100332.61
2023-05-20T03:13:12.865Z,100325.45
2023-05-20T03:15:45.932Z,100328.81
2023-05-20T03:18:19.690Z,100325.05
2023-05-20T03:20:52.633Z,100335.77
2023-05-20T03:23:25.728Z,100328.98
2023-05-20T03:25:59.016Z,100333.62
2023-05-20T03:28:33.250Z,100327.27
2023-05-20T03:31:06.903Z,100326.61
2023-05-20T03:33:40.495Z,100324.72
2023-05-20T03:36:14.103Z,100321.00
2023-05-20T03:38:47.168Z,100319.65
2023-05-20T03:41:20.099Z,100323.62
2023-05-20T03:43:53.557Z,100326.42
2023-05-20T03:46:26.509Z,100324.14
2023-05-20T03:48:59.511Z,100320.23
2023-05-20T03:51:32.762Z,100323.14
2023-05-20T03:54:07.304Z,100326.77
2023-05-20T03:56:40.333Z,100323.67
2023-05-20T03:59:13.442Z,100324.50
2023-05-20T04:01:46.713Z,100319.27
2023-05-20T04:04:19.720Z,100320.55
2023-05-20T04:06:52.958Z,100331.47
2023-05-20T04:09:25.962Z,100327.75
2023-05-20T04:11:58.787Z,100330.09
2023-05-20T04:14:33.773Z,100332.41
2023-05-20T04:17:06.818Z,100333.02
2023-05-20T04:19:39.627Z,100327.05
2023-05-20T04:22:12.675Z,100330.26
2023-05-20T04:24:46.401Z,100326.01
2023-05-20T04:27:20.636Z,100329.37
2023-05-20T04:29:55.370Z,100326.08
2023-05-20T04:32:28.206Z,100330.28
2023-05-20T04:35:02.608Z,100329.58
2023-05-20T04:37:37.735Z,100332.82
2023-05-20T04:40:12.846Z,100332.16
2023-05-20T04:42:46.243Z,100336.38
2023-05-20T04:45:19.622Z,100331.34
2023-05-20T04:47:53.620Z,100333.31
2023-05-20T04:50:26.518Z,100333.45
2023-05-20T04:52:59.948Z,100338.95
2023-05-20T04:55:33.500Z,100329.41
2023-05-20T04:58:08.683Z,100335.75
2023-05-20T05:00:42.638Z,100327.94
2023-05-20T05:03:15.973Z,100328.95
2023-05-20T05:05:48.989Z,100329.07
2023-05-20T05:08:21.924Z,100331.84
2023-05-20T05:10:56.346Z,100329.32
2023-05-20T05:13:29.412Z,100331.62
2023-05-20T05:16:06.784Z,100332.24
2023-05-20T05:18:40.230Z,100323.55
2023-05-20T05:21:13.986Z,100331.23
2023-05-20T05:23:47.469Z,100321.30
2023-05-20T05:26:20.370Z,100321.94
2023-05-20T05:28:54.419Z,100326.95
2023-05-20T05:31:28.484Z,100329.77
2023-05-20T05:34:01.773Z,100325.97
2023-05-20T05:36:36.373Z,100323.88
2023-05-20T05:39:09.237Z,100329.36
2023-05-20T05:41:42.964Z,100321.92
2023-05-20T05:44:15.921Z,100317.17
2023-05-20T05:46:49.291Z,100314.63
2023-05-20T05:49:22.343Z,100307.69
2023-05-20T05:51:55.631Z,100311.82
2023-05-20T05:54:29.380Z,100313.27
2023-05-20T05:57:02.590Z,100314.26
2023-05-20T05:59:37.285Z,100305.05
2023-05-20T06:02:11.206Z,100310.47
2023-05-20T06:04:44.533Z,100313.22
2023-05-20T06:07:17.449Z,100309.27
2023-05-20T06:09:50.389Z,100309.34
2023-05-20T06:12:23.424Z,100306.31
2023-05-20T06:14:56.661Z,100310.81
2023-05-20T06:17:29.675Z,100305.16
2023-05-20T06:20:02.686Z,100302.56
2023-05-20T06:22:36.096Z,100306.20
2023-05-20T06:25:11.040Z,100302.69
2023-05-20T06:27:44.112Z,100302.75
2023-05-20T06:30:18.706Z,100298.34
2023-05-20T06:32:51.921Z,100289.55
2023-05-20T06:35:26.095Z,100290.47
2023-05-20T06:37:59.233Z,100294.05
2023-05-20T06:40:32.499Z,100287.02
2023-05-20T06:43:05.632Z,100297.70
2023-05-20T06:45:56.775Z,100302.70
2023-05-20T06:48:31.456Z,100297.89
2023-05-20T06:51:07.343Z,100307.73
2023-05-20T06:53:40.425Z,100296.22
2023-05-20T06:56:13.663Z,100297.13
2023-05-20T06:58:46.631Z,100301.64
2023-05-20T07:01:19.764Z,100306.53
2023-05-20T07:03:52.681Z,100311.43
2023-05-20T07:06:26.251Z,100312.36
2023-05-20T07:08:59.217Z,100319.05
2023-05-20T07:11:33.031Z,100318.16
2023-05-20T07:14:06.026Z,100314.17
2023-05-20T07:16:39.276Z,100311.98
2023-05-20T07:19:12.724Z,100317.34
2023-05-20T07:21:45.763Z,100311.11
2023-05-20T07:24:19.976Z,100312.09
2023-05-20T07:26:53.131Z,100314.31
2023-05-20T07:29:26.294Z,100307.66
2023-05-20T07:31:59.321Z,100312.55
2023-05-20T07:34:32.656Z,100307.25
2023-05-20T07:37:06.437Z,100307.25
2023-05-20T07:39:39.602Z,100307.73
2023-05-20T07:42:12.933Z,100311.30
2023-05-20T07:44:47.690Z,100317.98
2023-05-20T07:47:20.432Z,100308.21
2023-05-20T07:49:53.768Z,100292.21
2023-05-20T07:52:26.732Z,100292.22
2023-05-20T07:55:00.282Z,100292.64
2023-05-20T07:57:33.564Z,100296.23
2023-05-20T08:00:07.282Z,100290.89
2023-05-20T08:02:42.164Z,100291.77
2023-05-20T08:05:15.660Z,100282.89
2023-05-20T08:07:49.192Z,100288.65
2023-05-20T08:10:22.822Z,100290.44
2023-05-20T08:12:56.664Z,100282.02
2023-05-20T08:15:29.744Z,100277.55
2023-05-20T08:18:02.691Z,100276.67
2023-05-20T08:20:36.861Z,100287.78
2023-05-20T08:23:10.117Z,100285.56
2023-05-20T08:25:46.178Z,100284.69
2023-05-20T08:28:19.748Z,100284.69
2023-05-20T08:30:53.572Z,100286.45
2023-05-20T08:33:26.938Z,100280.22
2023-05-20T08:35:59.710Z,100278.44
2023-05-20T08:38:33.681Z,100286.45
2023-05-20T08:41:06.556Z,100282.90
2023-05-20T08:43:40.312Z,100283.34
2023-05-20T08:46:14.003Z,100295.78
2023-05-20T08:48:48.226Z,100279.27
2023-05-20T08:51:24.069Z,100285.50
2023-05-20T08:53:57.038Z,100279.68
2023-05-20T08:56:31.122Z,100269.88
2023-05-20T08:59:05.703Z,100274.75
2023-05-20T09:01:44.676Z,100270.25
2023-05-20T09:04:17.930Z,100271.59
2023-05-20T09:06:52.557Z,100270.70
2023-05-20T09:09:25.392Z,100276.05
2023-05-20T09:11:58.707Z,100271.13
2023-05-20T09:14:32.680Z,100269.39
2023-05-20T09:17:08.648Z,100272.09
2023-05-20T09:19:42.258Z,100269.89
2023-05-20T09:22:15.241Z,100271.66
2023-05-20T09:24:50.080Z,100265.46
2023-05-20T09:27:25.134Z,100264.56
2023-05-20T09:29:57.908Z,100261.88
2023-05-20T09:32:31.247Z,100247.66
2023-05-20T09:35:05.726Z,100243.17
2023-05-20T09:37:39.446Z,100243.16
2023-05-20T09:40:15.567Z,100235.58
2023-05-20T09:43:04.091Z,100243.64
2023-05-20T09:45:37.692Z,100233.83
2023-05-20T09:48:11.417Z,100226.63
2023-05-20T09:50:44.404Z,100232.34
2023-05-20T09:53:17.280Z,100233.15
2023-05-20T09:55:50.549Z,100228.18
2023-05-20T09:58:25.611Z,100235.73
2023-05-20T10:00:58.867Z,100231.17
2023-05-20T10:03:33.749Z,100231.09
2023-05-20T10:06:20.531Z,100229.23
2023-05-20T10:09:27.938Z,100227.38
2023-05-20T10:12:17.670Z,100223.37
2023-05-20T10:15:04.546Z,100230.97
2023-05-20T10:17:57.419Z,100228.30
2023-05-20T10:20:30.357Z,100221.61
2023-05-20T10:23:03.264Z,100225.23
2023-05-20T10:25:36.806Z,100219.89
2023-05-20T10:28:13.322Z,100217.68
2023-05-20T10:30:51.886Z,100219.05
2023-05-20T10:33:24.929Z,100217.29
2023-05-20T10:36:02.953Z,100213.33
2023-05-20T10:38:36.976Z,100210.22
2023-05-20T10:41:13.256Z,100203.64
2023-05-20T10:43:46.140Z,100203.64
2023-05-20T10:46:35.006Z,100197.80
2023-05-20T10:48:56.870Z,100196.84
2023-05-20T10:51:33.324Z,100188.70
2023-05-20T10:54:06.128Z,100183.67
2023-05-20T10:56:39.282Z,100184.39
2023-05-20T10:59:12.522Z,100186.06
2023-05-20T11:01:45.425Z,100191.78
2023-05-20T11:04:19.883Z,100188.30
2023-05-20T11:06:57.532Z,100199.13
2023-05-20T11:09:32.165Z,100200.66
2023-05-20T11:12:05.625Z,100205.64
2023-05-20T11:14:38.976Z,100198.98
2023-05-20T11:17:12.586Z,100202.12
2023-05-20T11:19:46.009Z,100195.80
2023-05-20T11:22:19.356Z,100189.03
2023-05-20T11:24:52.586Z,100188.56
2023-05-20T11:27:25.627Z,100189.97
2023-05-20T11:29:58.689Z,100194.09
2023-05-20T11:32:31.914Z,100194.09
2023-05-20T11:35:05.121Z,100191.41
2023-05-20T11:37:38.914Z,100189.55
2023-05-20T11:40:14.093Z,100188.08
2023-05-20T11:42:47.768Z,100180.77
2023-05-20T11:45:20.612Z,100190.45
2023-05-20T11:48:05.209Z,100194.90
2023-05-20T11:50:45.851Z,100191.42
2023-05-20T11:53:24.323Z,100196.84
2023-05-20T11:56:01.426Z,100185.23
2023-05-20T11:58:34.787Z,100183.88
2023-05-20T12:01:21.016Z,100184.74
2023-05-20T12:03:42.925Z,100174.91
2023-05-20T12:06:16.188Z,100176.28
2023-05-20T12:08:49.452Z,100178.59
2023-05-20T12:11:22.714Z,100174.63
2023-05-20T12:13:55.675Z,100170.64
2023-05-20T12:16:29.229Z,100163.00
2023-05-20T12:19:02.359Z,100169.13
2023-05-20T12:21:35.870Z,100154.70
2023-05-20T12:24:09.691Z,100150.22
2023-05-20T12:26:43.886Z,100156.05
2023-05-20T12:29:16.727Z,100151.20
2023-05-20T12:31:49.566Z,100162.00
2023-05-20T12:34:22.555Z,100157.58
2023-05-20T12:36:55.477Z,100153.20
2023-05-20T12:39:28.370Z,100146.47
2023-05-20T12:42:01.334Z,100139.66
2023-05-20T12:44:34.769Z,100139.98
2023-05-20T12:47:07.809Z,100138.91
2023-05-20T12:49:40.772Z,100136.98
2023-05-20T12:52:21.875Z,100137.78
2023-05-20T12:54:48.354Z,100133.62
2023-05-20T12:57:21.648Z,100125.09
2023-05-20T12:59:54.642Z,100125.05
2023-05-20T13:02:27.973Z,100125.05
2023-05-20T13:05:00.976Z,100120.06
2023-05-20T13:07:34.125Z,100115.98
2023-05-20T13:10:10.736Z,100111.27
2023-05-20T13:12:45.530Z,100111.27
2023-05-20T13:15:18.417Z,100116.52
2023-05-20T13:17:51.356Z,100117.38
2023-05-20T13:20:24.384Z,100116.08
2023-05-20T13:22:57.492Z,100117.62
2023-05-20T13:25:32.184Z,100119.66
2023-05-20T13:28:06.925Z,100114.05
2023-05-20T13:30:40.020Z,100117.83
2023-05-20T13:33:13.116Z,100121.14
2023-05-20T13:35:46.050Z,100111.06
2023-05-20T13:38:19.348Z,100110.70
2023-05-20T13:40:52.320Z,100115.30
2023-05-20T13:43:26.215Z,100110.52
2023-05-20T13:45:59.225Z,100108.37
2023-05-20T13:48:33.353Z,100114.58
2023-05-20T13:51:06.507Z,100108.63
2023-05-20T13:53:40.716Z,100104.84
2023-05-20T13:56:13.623Z,100109.58
2023-05-20T13:58:46.634Z,100106.31
2023-05-20T14:01:19.652Z,100096.27
2023-05-20T14:03:52.822Z,100097.00
2023-05-20T14:06:26.133Z,100092.05
2023-05-20T14:08:59.592Z,100090.69
2023-05-20T14:11:32.773Z,100083.98
2023-05-20T14:14:06.133Z,100087.94
2023-05-20T14:16:40.122Z,100082.08
2023-05-20T14:19:13.028Z,100082.42
2023-05-20T14:21:45.813Z,100076.56
2023-05-20T14:24:18.621Z,100087.30
2023-05-20T14:26:51.681Z,100081.03
2023-05-20T14:29:24.752Z,100087.72
2023-05-20T14:31:57.720Z,100084.55
2023-05-20T14:34:30.910Z,100086.30
2023-05-20T14:37:05.644Z,100081.36
2023-05-20T14:39:39.234Z,100083.09
2023-05-20T14:42:12.765Z,100074.58
2023-05-20T14:44:46.205Z,100074.14
2023-05-20T14:47:21.895Z,100080.00
2023-05-20T14:49:54.735Z,100077.34
2023-05-20T14:52:27.648Z,100077.36
2023-05-20T14:55:00.913Z,100082.30
2023-05-20T14:57:34.179Z,100078.80
2023-05-20T15:00:09.080Z,100084.20
2023-05-20T15:02:42.628Z,100080.20
2023-05-20T15:05:16.033Z,100078.03
2023-05-20T15:07:48.942Z,100074.44
2023-05-20T15:10:22.297Z,100077.91
2023-05-20T15:12:55.570Z,100083.95
2023-05-20T15:15:28.600Z,100078.23
2023-05-20T15:18:02.070Z,100075.81
2023-05-20T15:20:34.837Z,100068.61
2023-05-20T15:23:06.713Z,100072.69
2023-05-20T15:25:39.068Z,100071.01
2023-05-20T15:28:10.843Z,100064.87
2023-05-20T15:30:42.509Z,100075.72
2023-05-20T15:33:14.546Z,100067.77
2023-05-20T15:35:46.214Z,100070.99
2023-05-20T15:38:18.076Z,100070.45
2023-05-20T15:40:52.699Z,100068.84
2023-05-20T15:43:24.828Z,100068.56
2023-05-20T15:45:56.669Z,100064.56
2023-05-20T15:48:28.754Z,100063.61
2023-05-20T15:51:00.438Z,100062.34
2023-05-20T15:53:33.042Z,100064.80
2023-05-20T15:56:05.183Z,100065.15
2023-05-20T15:58:37.390Z,100067.20
2023-05-20T16:01:09.211Z,100064.28
2023-05-20T16:03:41.637Z,100069.93
2023-05-20T16:06:13.538Z,100063.72
2023-05-20T16:08:46.268Z,100063.34
2023-05-20T16:11:18.014Z,100068.89
2023-05-20T16:13:49.795Z,100076.37
2023-05-20T16:16:21.670Z,100074.43
2023-05-20T16:18:53.768Z,100071.22
2023-05-20T16:21:26.255Z,100073.67
2023-05-20T16:23:58.088Z,100080.12
2023-05-20T16:26:32.243Z,100078.48
2023-05-20T16:29:04.176Z,100081.19
2023-05-20T16:31:36.277Z,100084.75
2023-05-20T16:34:08.629Z,100084.19
2023-05-20T16:36:40.701Z,100088.91
2023-05-20T16:39:13.019Z,100089.53
2023-05-20T16:41:45.202Z,100093.70
2023-05-20T16:44:17.118Z,100085.40
2023-05-20T16:46:49.621Z,100087.28
2023-05-20T16:49:22.176Z,100082.48
2023-05-20T16:51:54.320Z,100087.02
2023-05-20T16:54:26.351Z,100081.73
2023-05-20T16:56:58.652Z,100085.78
2023-05-20T16:59:32.108Z,100083.11
2023-05-20T17:02:03.951Z,100084.05
2023-05-20T17:04:36.959Z,100088.06
2023-05-20T17:07:09.909Z,100080.52
2023-05-20T17:09:41.663Z,100075.64
2023-05-20T17:12:13.499Z,100087.19
2023-05-20T17:14:46.163Z,100089.38
2023-05-20T17:17:17.964Z,100088.90
2023-05-20T17:19:49.883Z,100086.24
2023-05-20T17:22:21.765Z,100083.09
2023-05-20T17:24:53.761Z,100087.50
2023-05-20T17:27:25.633Z,100083.93
2023-05-20T17:29:58.852Z,100098.05
2023-05-20T17:32:31.006Z,100098.92
2023-05-20T17:35:02.849Z,100101.99
2023-05-20T17:37:35.963Z,100111.70
2023-05-20T17:40:08.278Z,100105.00
2023-05-20T17:42:40.590Z,100106.33
2023-05-20T17:45:12.749Z,100101.84
2023-05-20T17:47:44.694Z,100107.58
2023-05-20T17:50:16.949Z,100117.73
2023-05-20T17:52:49.250Z,100117.29
2023-05-20T17:55:22.309Z,100115.02
2023-05-20T17:57:54.501Z,100116.31
2023-05-20T18:00:28.704Z,100117.59
2023-05-20T18:03:01.006Z,100118.90
2023-05-20T18:05:34.115Z,100117.95
2023-05-20T18:08:06.890Z,100125.47
2023-05-20T18:10:41.921Z,100123.64
2023-05-20T18:13:13.869Z,100131.58
2023-05-20T18:15:45.849Z,100127.97
2023-05-20T18:18:17.792Z,100136.34
2023-05-20T18:20:49.979Z,100138.93
2023-05-20T18:23:22.625Z,100144.22
2023-05-20T18:25:55.430Z,100144.17
2023-05-20T18:28:27.618Z,100146.28
2023-05-20T18:30:59.357Z,100139.98
2023-05-20T18:33:31.480Z,100143.87
2023-05-20T18:36:03.374Z,100147.37
2023-05-20T18:38:35.395Z,100141.97
2023-05-20T18:41:07.316Z,100135.27
2023-05-20T18:43:39.863Z,100139.63
2023-05-20T18:46:12.166Z,100134.27
2023-05-20T18:48:44.131Z,100137.72
2023-05-20T18:51:16.186Z,100137.25
2023-05-20T18:53:48.161Z,100133.64
2023-05-20T18:56:20.117Z,100136.70
2023-05-20T18:58:52.481Z,100146.42
2023-05-20T19:01:25.203Z,100136.59
2023-05-20T19:03:57.486Z,100138.76
2023-05-20T19:06:29.443Z,100138.23
2023-05-20T19:09:02.189Z,100135.03
2023-05-20T19:11:34.355Z,100132.33
2023-05-20T19:14:07.565Z,100137.98
2023-05-20T19:16:40.434Z,100136.16
2023-05-20T19:19:12.271Z,100136.47
2023-05-20T19:21:44.438Z,100130.61
2023-05-20T19:24:17.860Z,100131.39
2023-05-20T19:26:49.924Z,100126.93
2023-05-20T19:29:21.953Z,100125.06
2023-05-20T19:31:54.270Z,100129.46
2023-05-20T19:34:26.392Z,100123.25
2023-05-20T19:36:58.377Z,100125.85
2023-05-20T19:39:31.289Z,100122.73
2023-05-20T19:42:03.539Z,100117.42
2023-05-20T19:44:35.948Z,100120.05
2023-05-20T19:47:08.084Z,100124.89
2023-05-20T19:49:40.078Z,100126.61
2023-05-20T19:52:12.321Z,100124.78
2023-05-20T19:54:44.332Z,100122.97
2023-05-20T19:57:16.575Z,100125.10
2023-05-20T19:59:49.205Z,100125.44
2023-05-20T20:02:22.308Z,100120.53
2023-05-20T20:04:55.445Z,100124.42
2023-05-20T20:07:27.803Z,100109.74
2023-05-20T20:10:00.051Z,100114.11
2023-05-20T20:12:32.330Z,100107.84
2023-05-20T20:15:05.635Z,100106.05
2023-05-20T20:17:38.265Z,100105.55
2023-05-20T20:20:11.986Z,100101.55
2023-05-20T20:22:44.072Z,100106.36
2023-05-20T20:25:16.275Z,100104.50
2023-05-20T20:27:48.747Z,100112.84
2023-05-20T20:30:21.790Z,100113.09
2023-05-20T20:32:53.866Z,100118.75
2023-05-20T20:35:26.065Z,100112.45
2023-05-20T20:37:58.224Z,100113.69
2023-05-20T20:40:30.028Z,100118.39
2023-05-20T20:43:03.843Z,100122.67
2023-05-20T20:45:37.742Z,100117.67
2023-05-20T20:48:09.762Z,100119.38
2023-05-20T20:50:41.650Z,100120.66
2023-05-20T20:53:15.426Z,100123.24
2023-05-20T20:55:47.407Z,100127.18
2023-05-20T20:58:19.340Z,100117.00
2023-05-20T21:00:53.387Z,100113.85
2023-05-20T21:03:26.567Z,100115.11
2023-05-20T21:05:58.531Z,100108.42
2023-05-20T21:08:32.044Z,100108.73
2023-05-20T21:11:04.036Z,100109.48
2023-05-20T21:13:38.870Z,100109.76
2023-05-20T21:16:10.808Z,100114.84
2023-05-20T21:18:43.008Z,100115.92
2023-05-20T21:21:16.771Z,100115.75
2023-05-20T21:23:50.635Z,100111.16
2023-05-20T21:26:22.503Z,100110.12
2023-05-20T21:28:54.692Z,100112.66
2023-05-20T21:31:26.702Z,100116.48
2023-05-20T21:33:58.735Z,100114.16
2023-05-20T21:36:33.327Z,100120.69
2023-05-20T21:39:06.151Z,100127.63
2023-05-20T21:41:38.124Z,100130.59
2023-05-20T21:44:10.068Z,100123.91
2023-05-20T21:46:42.000Z,100131.39
2023-05-20T21:49:13.950Z,100122.55
2023-05-20T21:51:45.825Z,100121.27
2023-05-20T21:54:17.584Z,100123.47
2023-05-20T21:56:49.502Z,100120.42
2023-05-20T21:59:21.382Z,100119.98
2023-05-20T22:01:58.351Z,100127.03
2023-05-20T22:04:30.763Z,100129.20
2023-05-20T22:07:02.867Z,100119.46
2023-05-20T22:09:34.769Z,100111.86
2023-05-20T22:12:07.884Z,100106.06
2023-05-20T22:14:39.928Z,100107.30
2023-05-20T22:17:11.750Z,100111.19
2023-05-20T22:19:44.205Z,100110.23
2023-05-20T22:22:16.332Z,100111.11
2023-05-20T22:24:50.299Z,100115.47
2023-05-20T22:27:22.356Z,100110.55
2023-05-20T22:29:54.170Z,100108.34
2023-05-20T22:32:25.984Z,100112.74
2023-05-20T22:34:59.035Z,100114.39
2023-05-20T22:37:33.700Z,100112.14
2023-05-20T22:40:06.300Z,100114.78
2023-05-20T22:42:38.313Z,100113.86
2023-05-20T22:45:11.107Z,100111.63
2023-05-20T22:47:43.472Z,100116.46
2023-05-20T22:50:15.562Z,100106.73
2023-05-20T22:52:48.183Z,100103.58
2023-05-20T22:55:20.068Z,100100.02
2023-05-20T22:57:51.886Z,100104.02
2023-05-20T23:00:24.085Z,100099.54
2023-05-20T23:02:56.852Z,100102.98
2023-05-20T23:05:30.348Z,100103.34
2023-05-20T23:08:02.660Z,100104.57
2023-05-20T23:10:34.518Z,100110.09
2023-05-20T23:13:06.673Z,100105.47
2023-05-20T23:15:40.685Z,100109.34
2023-05-20T23:18:12.610Z,100111.90
2023-05-20T23:20:44.632Z,100112.25
2023-05-20T23:23:17.212Z,100105.52
2023-05-20T23:25:50.145Z,100103.24
2023-05-20T23:28:22.179Z,100096.55
2023-05-20T23:30:54.889Z,100098.62
2023-05-20T23:33:27.003Z,100097.17
2023-05-20T23:35:59.061Z,100096.16
2023-05-20T23:38:32.188Z,100093.33
2023-05-20T23:41:04.424Z,100094.08
2023-05-20T23:43:36.544Z,100097.81
2023-05-20T23:46:08.465Z,100097.58
2023-05-20T23:48:40.587Z,100093.83
2023-05-20T23:51:13.766Z,100086.56
2023-05-20T23:53:45.939Z,100090.20
2023-05-20T23:56:17.859Z,100087.23
2023-05-20T23:58:49.649Z,100087.90
